createdAt,value
2023-03-15T00:00:32.364Z,50.881187
2023-03-15T00:01:32.337Z,50.881523
2023-03-15T12:21:28.646Z,50.875565
2023-03-15T12:22:28.614Z,50.875538
2023-03-15T12:23:28.606Z,50.875801
2023-03-15T12:24:28.609Z,50.875694
2023-03-15T12:25:28.583Z,50.875893
2023-03-15T12:26:28.584Z,50.876270
2023-03-15T12:27:28.570Z,50.876289
2023-03-15T12:28:28.555Z,50.875725
2023-03-15T12:29:29.540Z,50.875595
2023-03-15T12:30:28.663Z,50.876022
2023-03-15T12:31:28.551Z,50.876030
2023-03-15T12:32:28.570Z,50.875992
2023-03-15T15:17:56.798Z,50.875240
2023-03-15T15:18:56.764Z,50.875229
2023-03-15T15:19:56.720Z,50.875187
2023-03-15T15:20:56.772Z,50.875202
2023-03-15T15:21:56.678Z,50.875271
2023-03-15T15:22:56.680Z,50.875275
2023-03-15T15:23:59.161Z,50.875244
2023-03-15T15:24:57.570Z,50.875469
2023-03-15T15:25:56.571Z,50.875740
2023-03-15T15:26:56.794Z,50.875534
2023-03-15T15:27:56.640Z,50.875504
2023-03-15T15:28:56.952Z,50.875374
2023-03-15T15:29:56.571Z,50.875500
2023-03-15T15:30:56.661Z,50.875256
2023-03-15T15:31:56.631Z,50.875088
2023-03-15T15:32:56.637Z,50.875320
2023-03-15T15:33:56.910Z,50.875187
2023-03-15T15:34:56.606Z,50.875160
2023-03-15T15:35:56.662Z,50.875183
2023-03-15T15:36:56.598Z,50.875458
2023-03-15T15:37:56.472Z,50.875519
2023-03-15T15:38:56.528Z,50.875397
2023-03-15T15:39:56.569Z,50.875240
2023-03-15T15:40:56.536Z,50.875408
2023-03-15T15:41:56.518Z,50.875286
2023-03-15T15:42:56.518Z,50.875336
2023-03-15T15:43:56.585Z,50.875404
2023-03-15T15:44:56.515Z,50.875237
2023-03-15T15:45:56.481Z,50.875263
2023-03-15T15:46:56.451Z,50.875389
2023-03-15T15:47:56.550Z,50.875431
2023-03-15T15:48:57.153Z,50.875431
2023-03-15T15:49:56.375Z,50.875431
2023-03-15T15:50:56.335Z,50.875431
2023-03-15T15:51:56.369Z,50.875511
2023-03-15T15:52:56.378Z,50.875458
2023-03-15T15:53:56.334Z,50.875336
2023-03-15T15:54:56.323Z,50.875504
2023-03-15T15:55:56.272Z,50.875046
2023-03-15T15:56:56.288Z,50.875259
2023-03-15T15:57:56.305Z,50.875393
2023-03-15T15:58:56.278Z,50.875340
2023-03-15T15:59:56.307Z,50.875359
2023-03-15T16:00:56.374Z,50.875347
2023-03-15T16:02:01.023Z,50.875347
2023-03-15T16:02:58.304Z,50.875347
2023-03-15T16:03:56.280Z,50.875294
2023-03-15T16:04:56.230Z,50.875301
2023-03-15T16:05:56.399Z,50.875290
2023-03-15T16:06:56.355Z,50.875160
2023-03-15T16:07:56.164Z,50.875275
2023-03-15T16:08:56.528Z,50.875351
2023-03-15T16:09:56.244Z,50.875313
2023-03-15T16:10:56.190Z,50.875301
2023-03-15T16:11:56.133Z,50.875275
2023-03-15T16:12:56.148Z,50.875465
2023-03-15T16:13:56.134Z,50.875477
2023-03-15T16:14:56.102Z,50.875477
2023-03-15T16:15:56.113Z,50.875500
2023-03-15T16:16:56.047Z,50.875397
2023-03-15T16:17:56.058Z,50.875313
2023-03-15T16:18:56.168Z,50.875313
2023-03-15T16:19:56.040Z,50.875313
2023-03-15T16:20:56.081Z,50.875313
2023-03-15T16:21:56.040Z,50.875408
2023-03-15T16:22:56.072Z,50.875439
2023-03-15T16:23:56.050Z,50.875355
2023-03-15T16:24:56.011Z,50.875530
2023-03-15T16:25:56.038Z,50.875549
2023-03-15T16:26:55.971Z,50.875553
2023-03-15T16:27:55.983Z,50.875370
2023-03-15T16:28:55.985Z,50.875385
2023-03-15T16:29:56.032Z,50.875416
2023-03-15T16:30:56.534Z,50.875351
2023-03-15T16:31:59.171Z,50.875340
2023-03-15T16:32:58.022Z,50.875340
2023-03-15T16:33:55.910Z,50.875439
2023-03-15T16:34:55.901Z,50.875450
2023-03-15T16:35:55.977Z,50.875420
2023-03-15T16:36:55.892Z,50.875397
2023-03-15T16:37:55.878Z,50.875328
2023-03-15T16:38:55.838Z,50.875263
2023-03-15T16:39:55.880Z,50.875134
2023-03-15T16:40:55.927Z,50.875336
2023-03-15T16:41:55.863Z,50.875412
2023-03-15T16:42:55.926Z,50.875416
2023-03-15T16:43:55.806Z,50.875313
2023-03-15T16:44:55.800Z,50.875015
2023-03-15T16:45:55.794Z,50.875454
2023-03-15T16:46:55.737Z,50.875366
2023-03-15T16:47:55.704Z,50.875347
2023-03-15T16:48:55.715Z,50.875355
2023-03-15T16:49:55.718Z,50.875332
2023-03-15T16:50:55.691Z,50.875248
2023-03-15T16:51:55.652Z,50.875164
2023-03-15T16:52:55.636Z,50.875530
2023-03-15T16:55:35.855Z,50.875446
2023-03-15T16:55:37.402Z,50.875446
2023-03-15T16:56:37.352Z,50.875381
2023-03-15T16:57:37.321Z,50.875340
2023-03-15T16:58:37.302Z,50.875294
2023-03-15T16:59:37.311Z,50.875298
2023-03-15T17:00:37.275Z,50.875233
2023-03-15T17:01:37.286Z,50.875393
2023-03-15T17:02:37.260Z,50.875278
2023-03-15T17:03:37.252Z,50.875259
2023-03-15T17:04:37.333Z,50.875336
2023-03-15T17:05:37.229Z,50.875336
2023-03-15T17:06:37.223Z,50.875435
2023-03-15T17:07:37.212Z,50.875336
2023-03-15T17:08:37.206Z,50.875427
2023-03-15T17:09:37.206Z,50.875481
2023-03-15T17:10:37.185Z,50.875282
2023-03-15T17:11:37.177Z,50.875061
2023-03-15T17:12:37.168Z,50.875332
2023-03-15T17:13:37.152Z,50.875267
2023-03-15T17:14:37.151Z,50.875305
2023-03-15T17:15:37.136Z,50.875359
2023-03-15T17:16:37.178Z,50.875347
2023-03-15T17:17:37.121Z,50.875328
2023-03-15T17:18:37.105Z,50.875271
2023-03-15T17:19:37.120Z,50.875439
2023-03-15T17:20:37.105Z,50.875797
2023-03-15T17:21:37.079Z,50.875397
2023-03-15T17:22:37.062Z,50.875465
2023-03-15T17:23:37.062Z,50.875389
2023-03-15T17:24:37.061Z,50.875374
2023-03-15T17:25:37.042Z,50.875439
2023-03-15T17:26:37.027Z,50.875340
2023-03-15T17:27:37.025Z,50.875347
2023-03-15T17:28:37.006Z,50.875233
2023-03-15T17:29:37.000Z,50.875301
2023-03-15T17:30:37.027Z,50.875340
2023-03-15T17:31:37.014Z,50.875381
2023-03-15T17:32:37.001Z,50.875298
2023-03-15T17:33:36.961Z,50.875515
2023-03-15T17:34:36.952Z,50.875557
2023-03-15T17:35:37.002Z,50.875385
2023-03-15T17:36:36.928Z,50.875454
2023-03-15T17:37:36.932Z,50.875576
2023-03-15T17:38:36.912Z,50.875427
2023-03-15T17:39:36.902Z,50.875416
2023-03-15T17:40:36.935Z,50.875477
2023-03-15T17:41:36.927Z,50.875366
2023-03-15T17:42:36.884Z,50.875313
2023-03-15T17:43:36.898Z,50.875301
2023-03-15T17:44:36.849Z,50.875328
2023-03-15T17:45:36.855Z,50.875385
2023-03-15T17:46:36.886Z,50.875397
2023-03-15T17:47:36.824Z,50.875324
2023-03-15T17:48:36.807Z,50.875359
2023-03-15T17:49:36.796Z,50.875549
2023-03-15T17:50:36.806Z,50.875519
2023-03-15T17:51:36.785Z,50.875446
2023-03-15T17:52:36.763Z,50.875641
2023-03-15T17:53:36.757Z,50.875771
2023-03-15T17:54:43.829Z,50.875576
2023-03-15T17:55:37.464Z,50.875546
2023-03-15T17:57:10.335Z,50.875591
2023-03-15T17:58:02.362Z,50.875565
2023-03-15T17:58:37.441Z,50.875553
2023-03-15T17:59:36.704Z,50.875565
2023-03-15T18:00:36.702Z,50.875465
2023-03-15T18:01:36.730Z,50.875591
2023-03-15T18:02:37.076Z,50.875580
2023-03-15T18:03:37.708Z,50.875778
2023-03-15T18:04:36.656Z,50.875778
2023-03-15T18:05:36.655Z,50.875778
2023-03-15T18:06:36.633Z,50.875778
2023-03-15T18:07:36.957Z,50.875778
2023-03-15T18:08:36.622Z,50.875778
2023-03-15T18:09:36.602Z,50.875778
2023-03-15T18:10:36.602Z,50.875778
2023-03-15T18:11:36.585Z,50.875408
2023-03-15T18:12:36.575Z,50.875229
2023-03-15T18:13:36.562Z,50.875450
2023-03-15T18:14:36.563Z,50.875362
2023-03-15T18:15:36.558Z,50.875267
2023-03-15T18:16:36.559Z,50.875069
2023-03-15T18:17:36.526Z,50.875271
2023-03-15T18:18:36.544Z,50.875484
2023-03-15T18:19:36.510Z,50.875111
2023-03-15T18:20:36.500Z,50.875511
2023-03-15T18:21:36.487Z,50.875736
2023-03-15T18:22:36.478Z,50.875084
2023-03-15T18:23:36.474Z,50.875069
2023-03-15T18:24:36.461Z,50.875069
2023-03-15T18:25:36.461Z,50.875069
2023-03-15T18:26:36.437Z,50.875069
2023-03-15T18:27:36.426Z,50.875069
2023-03-15T18:28:36.401Z,50.875069
2023-03-15T18:29:36.400Z,50.875069
2023-03-15T18:30:36.403Z,50.875069
2023-03-15T18:31:36.446Z,50.875069
2023-03-15T18:32:36.396Z,50.875069
2023-03-15T18:33:36.356Z,50.875069
2023-03-15T18:34:36.348Z,50.875069
2023-03-15T18:35:36.450Z,50.875069
2023-03-15T18:36:36.329Z,50.875069
2023-03-15T18:37:36.312Z,50.875069
2023-03-15T18:38:36.365Z,50.875069
2023-03-15T18:39:36.296Z,50.875069
2023-03-15T18:40:36.286Z,50.875069
2023-03-15T18:41:36.286Z,50.875069
2023-03-15T18:42:36.276Z,50.875069
2023-03-15T18:43:36.258Z,50.875656
2023-03-15T18:44:36.242Z,50.875404
2023-03-15T18:45:36.445Z,50.875355
2023-03-15T18:46:36.274Z,50.875275
2023-03-15T18:47:36.217Z,50.875347
2023-03-15T18:48:40.858Z,50.875416
2023-03-15T18:49:55.477Z,50.875366
2023-03-15T18:50:37.194Z,50.875366
2023-03-15T18:51:36.190Z,50.875454
2023-03-15T18:52:36.173Z,50.875309
2023-03-15T18:53:36.166Z,50.875393
2023-03-15T18:54:36.157Z,50.875469
2023-03-15T18:55:36.143Z,50.875557
2023-03-15T18:56:36.144Z,50.875397
2023-03-15T18:57:36.124Z,50.876144
2023-03-15T18:58:36.110Z,50.875401
2023-03-15T18:59:36.112Z,50.875259
2023-03-15T19:00:36.158Z,50.875477
2023-03-15T19:01:36.226Z,50.875534
2023-03-15T19:02:36.208Z,50.875607
2023-03-15T19:03:36.061Z,50.875607
2023-03-15T19:04:36.053Z,50.875607
2023-03-15T19:05:36.046Z,50.875607
2023-03-15T19:06:36.046Z,50.875607
2023-03-15T19:07:36.024Z,50.875320
2023-03-15T19:08:36.016Z,50.875359
2023-03-15T19:09:35.999Z,50.875301
2023-03-15T19:10:36.002Z,50.875366
2023-03-15T19:11:36.001Z,50.875202
2023-03-15T19:12:35.986Z,50.875469
2023-03-15T19:13:35.962Z,50.875290
2023-03-15T19:14:35.959Z,50.875267
2023-03-15T19:15:35.940Z,50.875301
2023-03-15T19:16:35.990Z,50.875298
2023-03-15T19:17:35.921Z,50.875347
2023-03-15T19:18:35.916Z,50.875477
2023-03-15T19:19:35.905Z,50.875301
2023-03-15T19:20:35.897Z,50.875187
2023-03-15T19:21:35.894Z,50.875168
2023-03-15T19:22:35.875Z,50.875298
2023-03-15T19:23:35.866Z,50.875095
2023-03-15T19:24:35.866Z,50.875099
2023-03-15T19:25:35.847Z,50.875206
2023-03-15T19:26:35.851Z,50.875366
2023-03-15T19:27:35.854Z,50.875313
2023-03-15T19:28:35.832Z,50.875423
2023-03-15T19:29:35.813Z,50.875454
2023-03-15T19:30:36.845Z,50.875542
2023-03-15T19:31:35.811Z,50.875229
2023-03-15T19:32:35.797Z,50.875366
2023-03-15T19:33:35.763Z,50.875523
2023-03-15T19:34:35.774Z,50.875431
2023-03-15T19:35:35.802Z,50.875511
2023-03-15T19:36:35.790Z,50.875496
2023-03-15T19:37:35.771Z,50.875420
2023-03-15T19:38:35.727Z,50.875240
2023-03-15T19:39:35.714Z,50.875195
2023-03-15T19:40:35.719Z,50.875305
2023-03-15T19:41:35.689Z,50.875492
2023-03-15T19:42:35.690Z,50.875423
2023-03-15T19:43:35.674Z,50.875446
2023-03-15T19:44:35.660Z,50.875393
2023-03-15T19:45:35.654Z,50.875355
2023-03-15T19:46:35.706Z,50.875370
2023-03-15T19:47:35.657Z,50.875278
2023-03-15T19:48:35.619Z,50.875259
2023-03-15T19:49:35.613Z,50.875408
2023-03-15T19:50:35.597Z,50.875492
2023-03-15T19:51:35.594Z,50.875435
2023-03-15T19:52:35.591Z,50.875397
2023-03-15T19:53:35.569Z,50.875427
2023-03-15T19:54:35.558Z,50.875309
2023-03-15T19:55:35.551Z,50.875198
2023-03-15T19:56:35.547Z,50.875362
2023-03-15T19:57:35.540Z,50.875301
2023-03-15T19:58:35.542Z,50.875324
2023-03-15T19:59:35.513Z,50.875408
2023-03-15T20:00:35.500Z,50.875328
2023-03-15T20:01:35.567Z,50.875309
2023-03-15T20:02:35.488Z,50.875267
2023-03-15T20:03:35.493Z,50.875351
2023-03-15T20:04:35.462Z,50.875557
2023-03-15T20:05:35.456Z,50.875416
2023-03-15T20:06:35.442Z,50.875404
2023-03-15T20:07:35.453Z,50.875412
2023-03-15T20:08:35.426Z,50.875309
2023-03-15T20:09:35.410Z,50.875298
2023-03-15T20:10:35.413Z,50.875576
2023-03-15T20:11:35.393Z,50.875320
2023-03-15T20:12:35.395Z,50.875225
2023-03-15T20:13:35.390Z,50.875259
2023-03-15T20:14:35.372Z,50.875206
2023-03-15T20:15:35.356Z,50.875332
2023-03-15T20:16:35.345Z,50.875366
2023-03-15T20:17:35.344Z,50.875454
2023-03-15T20:18:35.330Z,50.875282
2023-03-15T20:19:35.313Z,50.875191
2023-03-15T20:20:35.308Z,50.875267
2023-03-15T20:21:35.295Z,50.875278
2023-03-15T20:22:35.309Z,50.875237
2023-03-15T20:23:35.276Z,50.875389
2023-03-15T20:24:35.275Z,50.875366
2023-03-15T20:25:35.248Z,50.875328
2023-03-15T20:26:36.253Z,50.875267
2023-03-15T20:27:35.252Z,50.874596
2023-03-15T20:28:35.227Z,50.875477
2023-03-15T20:29:35.217Z,50.875511
2023-03-15T20:30:35.208Z,50.875252
2023-03-15T20:31:35.283Z,50.875366
2023-03-15T20:32:35.257Z,50.875324
2023-03-15T20:33:35.183Z,50.875401
2023-03-15T20:34:35.183Z,50.875320
2023-03-15T20:35:35.206Z,50.875267
2023-03-15T20:36:35.158Z,50.875214
2023-03-15T20:37:35.154Z,50.875301
2023-03-15T20:38:35.136Z,50.875259
2023-03-15T20:39:35.189Z,50.875278
2023-03-15T20:40:35.122Z,50.875328
2023-03-15T20:41:35.111Z,50.875259
2023-03-15T20:42:35.491Z,50.875206
2023-03-15T20:43:35.085Z,50.875412
2023-03-15T20:44:35.076Z,50.875378
2023-03-15T20:45:35.067Z,50.875420
2023-03-15T20:46:35.089Z,50.875488
2023-03-15T20:47:35.050Z,50.875420
2023-03-15T20:48:35.133Z,50.875397
2023-03-15T20:49:35.021Z,50.875427
2023-03-15T20:50:35.011Z,50.875420
2023-03-15T20:51:35.008Z,50.875355
2023-03-15T20:52:35.000Z,50.875374
2023-03-15T20:53:34.985Z,50.875385
2023-03-15T20:54:34.968Z,50.875401
2023-03-15T20:55:34.967Z,50.875408
2023-03-15T20:56:34.957Z,50.875351
2023-03-15T20:57:34.954Z,50.875340
2023-03-15T20:58:34.934Z,50.875336
2023-03-15T20:59:34.923Z,50.875404
2023-03-15T21:00:34.925Z,50.875389
2023-03-15T21:01:34.901Z,50.875374
2023-03-15T21:02:34.894Z,50.875393
2023-03-15T21:03:34.943Z,50.875378
2023-03-15T21:04:34.876Z,50.875427
2023-03-15T21:05:34.863Z,50.875439
2023-03-15T21:06:34.863Z,50.875916
2023-03-15T21:07:34.844Z,50.875504
2023-03-15T21:08:34.857Z,50.875332
2023-03-15T21:09:34.814Z,50.875282
2023-03-15T21:10:35.817Z,50.875301
2023-03-15T21:11:34.811Z,50.875374
2023-03-15T21:12:34.793Z,50.875374
2023-03-15T21:13:34.803Z,50.875561
2023-03-15T21:14:34.794Z,50.875511
2023-03-15T21:15:34.773Z,50.875427
2023-03-15T21:16:34.797Z,50.875557
2023-03-15T21:17:34.750Z,50.875439
2023-03-15T21:18:34.752Z,50.875435
2023-03-15T21:19:34.734Z,50.875370
2023-03-15T21:20:34.724Z,50.875347
2023-03-15T21:21:34.709Z,50.875324
2023-03-15T21:22:34.693Z,50.875290
2023-03-15T21:23:34.727Z,50.875412
2023-03-15T21:24:36.614Z,50.875244
2023-03-15T21:25:36.660Z,50.875385
2023-03-15T21:26:34.660Z,50.875332
2023-03-15T21:27:34.643Z,50.875324
2023-03-15T21:28:34.645Z,50.875278
2023-03-15T21:29:34.623Z,50.875317
2023-03-15T21:30:34.611Z,50.875351
2023-03-15T21:31:34.656Z,50.875351
2023-03-15T21:32:34.638Z,50.875305
2023-03-15T21:33:34.594Z,50.875401
2023-03-15T21:34:34.567Z,50.875374
2023-03-15T21:35:34.583Z,50.875389
2023-03-15T21:36:34.557Z,50.875450
2023-03-15T21:37:34.546Z,50.875420
2023-03-15T21:38:34.539Z,50.875343
2023-03-15T21:39:34.519Z,50.875282
2023-03-15T21:40:34.505Z,50.875378
2023-03-15T21:41:34.514Z,50.875465
2023-03-15T21:42:34.513Z,50.875393
2023-03-15T21:43:34.500Z,50.875290
2023-03-15T21:44:34.472Z,50.875378
2023-03-15T21:45:34.597Z,50.875420
2023-03-15T21:46:34.511Z,50.875538
2023-03-15T21:47:34.454Z,50.875378
2023-03-15T21:48:35.460Z,50.875347
2023-03-15T21:49:34.425Z,50.875359
2023-03-15T21:50:34.422Z,50.875355
2023-03-15T21:51:34.416Z,50.875347
2023-03-15T21:52:34.396Z,50.875435
2023-03-15T21:53:34.413Z,50.875336
2023-03-15T21:54:34.383Z,50.875420
2023-03-15T21:55:34.387Z,50.875324
2023-03-15T21:56:34.373Z,50.875397
2023-03-15T21:57:34.357Z,50.876400
2023-03-15T21:58:34.360Z,50.877796
2023-03-15T21:59:34.341Z,50.878681
2023-03-15T22:00:34.321Z,50.880161
2023-03-15T22:01:34.396Z,50.882656
2023-03-15T22:02:34.301Z,50.885151
2023-03-15T22:03:34.307Z,50.888371
2023-03-15T22:04:34.388Z,50.892262
2023-03-15T22:05:34.273Z,50.896904
2023-03-15T22:06:34.253Z,50.901993
2023-03-15T22:07:35.268Z,50.906960
2023-03-15T22:08:34.266Z,50.913013
2023-03-15T22:09:34.235Z,50.913013
2023-03-15T22:10:34.236Z,50.913013
2023-03-15T22:11:34.228Z,50.913013
2023-03-15T22:12:34.218Z,50.913013
2023-03-15T22:13:34.203Z,50.913013
2023-03-15T22:14:34.204Z,50.913013
2023-03-15T22:15:34.203Z,50.874180
2023-03-15T22:16:34.281Z,50.874180
2023-03-15T22:17:34.953Z,50.874180
2023-03-15T22:18:34.154Z,50.874180
2023-03-15T22:19:34.138Z,50.874916
2023-03-15T22:20:34.127Z,50.875046
2023-03-15T22:21:34.112Z,50.874851
2023-03-15T22:22:34.119Z,50.875076
2023-03-15T22:23:34.108Z,50.875305
2023-03-15T22:24:34.155Z,50.875359
2023-03-15T22:25:34.098Z,50.875614
2023-03-15T22:26:34.075Z,50.875580
2023-03-15T22:27:34.069Z,50.875420
2023-03-15T22:28:34.947Z,50.875473
2023-03-15T22:29:34.042Z,50.875523
2023-03-15T22:30:34.093Z,50.875488
2023-03-15T22:31:34.050Z,50.875317
2023-03-15T22:32:34.066Z,50.875587
2023-03-15T22:33:34.016Z,50.875378
2023-03-15T22:34:34.017Z,50.875366
2023-03-15T22:35:34.075Z,50.875366
2023-03-15T22:36:34.033Z,50.875374
2023-03-15T22:37:33.991Z,50.875347
2023-03-15T22:38:34.012Z,50.875385
2023-03-15T22:39:33.976Z,50.875305
2023-03-15T22:40:33.937Z,50.875221
2023-03-15T22:41:33.940Z,50.875523
2023-03-15T22:42:33.927Z,50.875397
2023-03-15T22:43:33.943Z,50.875412
2023-03-15T22:44:33.948Z,50.875294
2023-03-15T22:45:33.908Z,50.875381
2023-03-15T22:46:35.213Z,50.875305
2023-03-15T22:47:34.887Z,50.875351
2023-03-15T22:48:33.898Z,50.875362
2023-03-15T22:49:33.926Z,50.875286
2023-03-15T22:50:33.888Z,50.875351
2023-03-15T22:51:34.463Z,50.875351
2023-03-15T22:52:33.844Z,50.875313
2023-03-15T22:53:33.858Z,50.875286
2023-03-15T22:54:33.836Z,50.875294
2023-03-15T22:55:33.806Z,50.875290
2023-03-15T22:56:33.808Z,50.875351
2023-03-15T22:57:33.787Z,50.875404
2023-03-15T22:58:33.793Z,50.875385
2023-03-15T22:59:33.764Z,50.875362
2023-03-15T23:00:33.759Z,50.875355
2023-03-15T23:01:33.791Z,50.875347
2023-03-15T23:02:33.745Z,50.875362
2023-03-15T23:03:33.757Z,50.875370
2023-03-15T23:04:33.795Z,50.875324
2023-03-15T23:05:33.712Z,50.875389
2023-03-15T23:06:33.702Z,50.875294
2023-03-15T23:07:33.685Z,50.875366
2023-03-15T23:08:33.692Z,50.875351
2023-03-15T23:09:33.675Z,50.875401
2023-03-15T23:10:33.720Z,50.875320
2023-03-15T23:11:33.663Z,50.875469
2023-03-15T23:12:36.160Z,50.875793
2023-03-15T23:13:34.653Z,50.878544
2023-03-15T23:14:33.641Z,50.880405
2023-03-15T23:15:33.612Z,50.882126
2023-03-15T23:16:33.610Z,50.879604
2023-03-15T23:17:33.600Z,50.875759
2023-03-15T23:18:33.602Z,50.875370
2023-03-15T23:19:33.584Z,50.875362
2023-03-15T23:20:33.574Z,50.875351
2023-03-15T23:21:33.563Z,50.875374
2023-03-15T23:22:33.554Z,50.875366
2023-03-15T23:23:33.556Z,50.875366
2023-03-15T23:24:33.539Z,50.875374
2023-03-15T23:25:33.525Z,50.875534
2023-03-15T23:26:33.514Z,50.875687
2023-03-15T23:27:33.508Z,50.875275
2023-03-15T23:28:33.516Z,50.875443
2023-03-15T23:29:40.728Z,50.875381
2023-03-15T23:30:36.311Z,50.875248
2023-03-15T23:31:34.513Z,50.875526
2023-03-15T23:32:33.500Z,50.875607
2023-03-15T23:33:33.472Z,50.878635
2023-03-15T23:34:33.446Z,50.884830
2023-03-15T23:35:33.510Z,50.892433
2023-03-15T23:36:33.426Z,50.897705
2023-03-15T23:37:33.419Z,50.897705
2023-03-15T23:38:33.438Z,50.897705
2023-03-15T23:39:33.405Z,50.875530
2023-03-15T23:40:33.395Z,50.875530
2023-03-15T23:41:33.391Z,50.875530
2023-03-15T23:42:33.370Z,50.875530
2023-03-15T23:43:33.357Z,50.875530
2023-03-15T23:44:33.367Z,50.875530
2023-03-15T23:45:33.349Z,50.875530
2023-03-15T23:46:33.414Z,50.875530
2023-03-15T23:47:33.320Z,50.875530
2023-03-15T23:48:33.308Z,50.875530
2023-03-15T23:49:33.347Z,50.875530
2023-03-15T23:50:34.291Z,50.875530
2023-03-15T23:51:33.285Z,50.875530
2023-03-15T23:52:33.269Z,50.875530
2023-03-15T23:53:33.268Z,50.875530
2023-03-15T23:54:33.270Z,50.875530
2023-03-15T23:55:33.287Z,50.875530
2023-03-15T23:56:33.235Z,50.875530
2023-03-15T23:57:33.247Z,50.875530
2023-03-15T23:58:33.209Z,50.875530
2023-03-15T23:59:33.221Z,50.875530
